Time;durP1;ratioP1;P1;durP2;ratioP2;P2;SDS_P1;SDS_P2;PMS_P1;PMS_P2;Temp;Humidity;BMP_temperature;BMP_pressure;BME280_temperature;BME280_humidity;BME280_pressure;Samples;Min_cycle;Max_cycle;Signal;HPM_P1;HPM_P2
2024/03/31 05:08:38;;;;;;;6.78;3.45;;;8.80;99.90;;;;;;3908328;30;20312;-94
2024/03/31 05:10:39;;;;;;;7.63;4.15;;;9.40;99.90;;;;;;3866241;30;20240;-93
2024/03/31 05:12:40;;;;;;;8.05;4.18;;;9.50;99.90;;;;;;4005134;29;20188;-93
2024/03/31 05:14:41;;;;;;;8.60;4.30;;;9.90;99.90;;;;;;4022921;29;20195;-93
2024/03/31 05:16:45;;;;;;;9.02;4.70;;;10.10;99.90;;;;;;4054010;29;20177;-94
2024/03/31 05:18:51;;;;;;;12.60;4.97;;;10.40;99.90;;;;;;4038595;29;20190;-92
2024/03/31 05:21:00;;;;;;;9.88;4.25;;;10.20;99.90;;;;;;4038236;29;20228;-93
2024/03/31 05:23:01;;;;;;;8.07;4.65;;;10.00;99.90;;;;;;4069352;29;20187;-93
2024/03/31 05:25:02;;;;;;;6.65;3.90;;;10.10;99.90;;;;;;4038258;29;20198;-94
2024/03/31 05:27:03;;;;;;;8.13;4.07;;;10.20;99.90;;;;;;4053815;29;20193;-94
2024/03/31 05:29:04;;;;;;;10.83;4.87;;;10.20;99.90;;;;;;4038090;29;20172;-93
2024/03/31 05:31:06;;;;;;;8.40;4.00;;;10.10;99.90;;;;;;4053482;29;20269;-93
2024/03/31 05:33:13;;;;;;;10.37;4.47;;;9.90;99.90;;;;;;4053436;29;20252;-93
2024/03/31 05:35:29;;;;;;;8.40;4.50;;;9.80;99.90;;;;;;4038165;29;20224;-92
2024/03/31 05:37:30;;;;;;;10.57;4.23;;;9.70;99.90;;;;;;4053923;29;20176;-93
2024/03/31 05:39:31;;;;;;;8.67;4.43;;;9.60;99.90;;;;;;4037578;29;20268;-93
2024/03/31 05:41:32;;;;;;;11.30;5.30;;;9.60;99.90;;;;;;4053154;29;20201;-93
2024/03/31 05:43:33;;;;;;;6.90;3.67;;;9.60;99.90;;;;;;4038004;29;20191;-93
2024/03/31 05:45:37;;;;;;;8.93;4.10;;;9.50;99.90;;;;;;4037800;29;20185;-93
2024/03/31 05:47:38;;;;;;;6.33;3.63;;;9.40;99.90;;;;;;4022339;29;20179;-93
2024/03/31 05:49:39;;;;;;;13.17;4.63;;;9.30;99.90;;;;;;4053410;29;20630;-94
2024/03/31 05:51:40;;;;;;;9.80;4.30;;;9.30;99.90;;;;;;4037725;29;20257;-93
2024/03/31 05:53:41;;;;;;;9.53;3.37;;;9.60;99.90;;;;;;4022453;29;20175;-93
2024/03/31 05:55:45;;;;;;;11.17;3.93;;;9.80;99.90;;;;;;4037833;29;20230;-93
2024/03/31 05:57:46;;;;;;;7.03;4.00;;;9.60;99.90;;;;;;4037702;29;20165;-93
2024/03/31 05:59:46;;;;;;;9.55;3.78;;;9.80;99.90;;;;;;4037936;29;20180;-94
2024/03/31 06:01:49;;;;;;;7.13;3.50;;;9.80;99.90;;;;;;4037883;29;20262;-93
2024/03/31 06:03:50;;;;;;;8.90;3.67;;;9.80;99.90;;;;;;4038006;29;20170;-93
2024/03/31 06:05:51;;;;;;;8.77;3.50;;;9.90;99.90;;;;;;4037750;29;20177;-94
2024/03/31 06:07:52;;;;;;;7.27;3.43;;;10.00;99.90;;;;;;4053116;29;20227;-93
2024/03/31 06:09:53;;;;;;;7.07;3.67;;;9.90;99.90;;;;;;4022399;29;20711;-93
2024/03/31 06:11:54;;;;;;;6.17;3.80;;;9.70;99.90;;;;;;4053079;29;20197;-93
2024/03/31 06:13:55;;;;;;;7.40;3.93;;;9.60;99.90;;;;;;4023802;29;20177;-93
2024/03/31 06:15:56;;;;;;;7.00;3.57;;;9.50;99.90;;;;;;4038298;29;20204;-92
2024/03/31 06:17:58;;;;;;;9.07;3.87;;;9.50;99.90;;;;;;4038702;29;20269;-93
2024/03/31 06:19:58;;;;;;;5.37;2.80;;;9.40;99.90;;;;;;4037301;29;20307;-93
2024/03/31 06:21:59;;;;;;;8.90;3.63;;;9.10;99.90;;;;;;4021904;29;20174;-93
2024/03/31 06:24:01;;;;;;;6.50;3.40;;;9.10;99.90;;;;;;4068391;29;20180;-94
2024/03/31 06:26:02;;;;;;;6.40;3.00;;;9.20;99.90;;;;;;4037089;29;20261;-93
2024/03/31 06:28:04;;;;;;;4.90;2.83;;;9.30;99.90;;;;;;4037369;29;20747;-93
2024/03/31 06:30:06;;;;;;;7.00;3.90;;;9.40;99.90;;;;;;4022029;29;20219;-92
2024/03/31 06:32:07;;;;;;;10.15;3.53;;;9.50;99.90;;;;;;4052721;29;20188;-94
2024/03/31 06:34:08;;;;;;;8.38;3.55;;;9.40;99.90;;;;;;4037331;29;20174;-93
2024/03/31 06:36:10;;;;;;;8.85;3.10;;;9.70;99.90;;;;;;4037134;29;20759;-93
2024/03/31 06:38:11;;;;;;;4.45;2.63;;;9.60;99.90;;;;;;4037595;29;20182;-93
2024/03/31 06:40:12;;;;;;;8.00;2.97;;;9.70;99.90;;;;;;4021876;29;20660;-93
2024/03/31 06:42:29;;;;;;;6.18;2.83;;;9.80;99.90;;;;;;4022229;29;20178;-94
2024/03/31 06:44:31;;;;;;;8.88;2.40;;;9.70;99.90;;;;;;4038860;29;20181;-95
2024/03/31 06:46:34;;;;;;;5.88;2.88;;;9.70;99.90;;;;;;4037327;29;20193;-94
2024/03/31 06:48:35;;;;;;;5.30;2.65;;;10.20;99.90;;;;;;4036944;29;20277;-93
2024/03/31 06:50:36;;;;;;;8.35;3.08;;;10.60;99.90;;;;;;4037310;29;20214;-96
2024/03/31 06:52:37;;;;;;;9.23;3.08;;;10.70;99.90;;;;;;4022479;29;20602;-93
2024/03/31 06:54:40;;;;;;;12.15;3.55;;;10.50;99.90;;;;;;4037198;29;20185;-93
2024/03/31 06:56:43;;;;;;;6.35;2.63;;;10.60;99.90;;;;;;4021928;29;20177;-95
2024/03/31 06:58:44;;;;;;;8.52;3.10;;;10.90;99.90;;;;;;4021851;29;20177;-96
2024/03/31 07:00:45;;;;;;;6.72;2.47;;;11.10;99.90;;;;;;4037212;29;20205;-92
2024/03/31 07:02:49;;;;;;;9.98;3.67;;;10.80;99.90;;;;;;4021666;29;20205;-95
2024/03/31 07:04:50;;;;;;;10.55;3.30;;;11.00;99.90;;;;;;4037312;29;20178;-95
2024/03/31 07:06:51;;;;;;;7.68;2.50;;;11.00;99.90;;;;;;4037851;29;20174;-92
2024/03/31 07:08:54;;;;;;;6.78;2.10;;;10.50;99.90;;;;;;4038560;29;20241;-93
2024/03/31 07:10:55;;;;;;;4.50;2.33;;;10.40;99.90;;;;;;4036836;29;20217;-93
2024/03/31 07:13:04;;;;;;;8.88;3.20;;;10.10;99.90;;;;;;4037243;29;20177;-93
2024/03/31 07:15:07;;;;;;;5.82;1.50;;;9.90;99.90;;;;;;4022057;29;20181;-95
2024/03/31 07:17:10;;;;;;;14.38;2.90;;;9.80;99.90;;;;;;4038265;29;20194;-94
2024/03/31 07:19:11;;;;;;;9.10;2.55;;;10.10;99.90;;;;;;4039157;29;20177;-93
2024/03/31 07:21:14;;;;;;;4.90;2.15;;;10.60;99.90;;;;;;4040027;29;20274;-94
2024/03/31 07:23:18;;;;;;;4.22;1.40;;;11.00;99.90;;;;;;4056174;29;20636;-94
2024/03/31 07:25:19;;;;;;;3.03;1.50;;;11.10;99.90;;;;;;4040603;29;20183;-93
2024/03/31 07:27:25;;;;;;;4.93;1.42;;;11.00;99.90;;;;;;4056679;29;20260;-93
2024/03/31 07:29:26;;;;;;;4.47;1.45;;;11.00;99.90;;;;;;4040091;29;20213;-94
2024/03/31 07:31:29;;;;;;;5.40;1.80;;;11.20;99.90;;;;;;4039940;29;20750;-94
2024/03/31 07:33:33;;;;;;;5.07;1.35;;;11.10;99.90;;;;;;4040156;29;20184;-94
2024/03/31 07:35:36;;;;;;;7.95;1.10;;;11.40;99.90;;;;;;4040113;29;20181;-95
2024/03/31 07:37:37;;;;;;;3.38;1.05;;;11.70;99.90;;;;;;4040142;29;20182;-93
2024/03/31 07:39:43;;;;;;;1.95;1.08;;;12.20;99.90;;;;;;4040964;29;20181;-94
2024/03/31 07:41:46;;;;;;;4.50;1.45;;;12.70;99.90;;;;;;4039952;29;20280;-94
2024/03/31 07:43:50;;;;;;;3.25;0.70;;;13.10;99.90;;;;;;4056302;29;20184;-93
2024/03/31 07:45:51;;;;;;;1.35;0.88;;;14.00;99.90;;;;;;4039501;29;20667;-95
2024/03/31 07:47:54;;;;;;;4.57;1.23;;;14.90;99.90;;;;;;4039725;29;20185;-94
2024/03/31 07:50:05;;;;;;;3.78;0.88;;;16.00;99.90;;;;;;4039530;29;20257;-94
2024/03/31 07:52:10;;;;;;;3.47;1.15;;;16.60;99.90;;;;;;4039552;29;20181;-95
2024/03/31 07:54:24;;;;;;;;;;;;;;;;;;;;;
2024/03/31 07:56:27;;;;;;;5.00;1.05;;;15.50;99.90;;;;;;4039651;29;20173;-94
2024/03/31 07:58:35;;;;;;;2.08;0.63;;;15.00;99.90;;;;;;4041474;29;20273;-94
2024/03/31 08:00:36;;;;;;;7.78;1.70;;;14.30;99.90;;;;;;4040625;29;20196;-95
2024/03/31 08:02:51;;;;;;;6.93;0.90;;;14.10;99.90;;;;;;4024849;29;20174;-94
2024/03/31 08:04:54;;;;;;;3.10;1.00;;;14.00;99.90;;;;;;4024345;29;20569;-93
2024/03/31 08:07:03;;;;;;;0.63;0.60;;;13.90;99.90;;;;;;4040211;29;20193;-94
2024/03/31 11:06:10;;;;;;;;;;;;;;;;;;;;;
2024/03/31 11:13:23;;;;;;;;;;;;;;;;;;;;;
2024/03/31 11:16:19;;;;;;;1.95;0.70;;;14.90;99.90;;;;;;3941450;30;20192;-96
2024/03/31 11:22:57;;;;;;;;;;;;;;;;;;;;;
2024/03/31 11:33:05;;;;;;;;;;;;;;;;;;;;;
2024/03/31 15:11:55;;;;;;;1.10;0.38;;;13.40;99.90;;;;;;4013867;29;20469;-94
2024/03/31 15:14:32;;;;;;;2.42;0.57;;;13.50;99.90;;;;;;3971129;29;20213;-96
2024/03/31 15:17:09;;;;;;;0.85;0.70;;;13.60;99.90;;;;;;3990623;29;20184;-94
2024/03/31 15:19:59;;;;;;;;;;;;;;;;;;;;;
2024/03/31 15:23:17;;;;;;;1.08;0.20;;;13.90;99.90;;;;;;3987837;29;20194;-95
2024/03/31 15:26:15;;;;;;;2.92;0.30;;;14.20;99.90;;;;;;3986117;29;20264;-95
2024/03/31 15:29:34;;;;;;;2.45;0.43;;;14.30;99.90;;;;;;3972855;29;20209;-94
2024/03/31 21:10:38;;;;;;;0.30;0.15;;;11.20;99.90;;;;;;4040995;29;20301;-95
2024/03/31 21:12:39;;;;;;;0.35;0.17;;;11.00;99.90;;;;;;4029502;29;20194;-94
2024/03/31 21:14:52;;;;;;;0.52;0.25;;;11.00;99.90;;;;;;4026101;29;20214;-95
2024/03/31 21:17:14;;;;;;;0.35;0.20;;;10.90;99.90;;;;;;4042822;29;20192;-93
2024/03/31 21:19:43;;;;;;;1.25;0.35;;;10.80;99.90;;;;;;4023762;29;20182;-93
2024/03/31 21:22:49;;;;;;;;;;;;;;;;;;;;;
2024/03/31 21:25:13;;;;;;;0.55;0.30;;;10.70;99.90;;;;;;4041421;29;20193;-94
2024/03/31 21:28:14;;;;;;;0.85;0.20;;;10.80;99.90;;;;;;4026051;29;20214;-94
2024/03/31 22:05:48;;;;;;;;;;;;;;;;;;;;;
2024/03/31 22:08:28;;;;;;;;;;;;;;;;;;;;;
2024/03/31 22:16:46;;;;;;;0.68;0.50;;;10.50;99.90;;;;;;4351901;23;20683;-94
2024/03/31 23:58:32;;;;;;;;;;;;;;;;;;;;;
